• Join FlightAware (Why Join?)
  • Login
  • US Flag 
02:10PM EDT


 

Airport Tracker/Info


-or-


 

Live Flight TrackerFlight Track Log ✈ N6045S ✈ 21-Jun-2013 ✈ KHPN - KBHB

Flight Track Log - Related Links

Times and Time Zones

All times are in EDT time to prevent confusion due to time zone crossing. See the N6045S flight status page for this flight to view local times or setup timezone preferences in your user account.

Time Position Orientation Groundspeed Altitude Reporting Facility
EDT Latitude Longitude Course Direction KTS MPH feet Rate Location/Type
11:25AM 41.1333 -73.6833 47° Northeast 168 193 3,500  Level New York TRACON
11:26AM 41.1667 -73.6333 48° Northeast 176 203 5,200 1,620 Climbing New York TRACON
11:27AM 41.2000 -73.5833 48° Northeast 175 201 6,800 1,560 Climbing New York TRACON
11:28AM 41.2333 -73.5333 48° Northeast 179 206 8,400 1,440 Climbing New York TRACON
11:29AM 41.2667 -73.5000 37° Northeast 182 209 9,700 1,260 Climbing New York TRACON
11:30AM 41.2148 -73.4931 47° Northeast  Level Estimated
11:30AM 41.3000 -73.4500 48° Northeast 192 221 10,900  Level New York TRACON
11:31AM 41.3333 -73.4000 48° Northeast 187 215 12,000 1,140 Climbing New York TRACON
11:31AM 41.3525 -73.3692 50° Northeast 158 182 12,800 1,140 Climbing Boston Center
11:32AM 41.3925 -73.3144 46° Northeast 172 198 14,000 1,020 Climbing Boston Center
11:33AM 41.4242 -73.2650 49° Northeast 177 204 14,900 960 Climbing Boston Center
11:34AM 41.4600 -73.2100 49° Northeast 191 220 16,000 960 Climbing Boston Center
11:35AM 41.4936 -73.1578 49° Northeast 186 214 16,900 720 Climbing Boston Center
11:36AM 41.5314 -73.1028 47° Northeast 186 214 17,500 300 Climbing Boston Center
11:37AM 41.5714 -73.0394 50° Northeast 212 244 17,500  Level Boston Center
11:38AM 41.6197 -72.9678 48° Northeast 239 275 17,500  Level Boston Center
11:39AM 41.6658 -72.8986 48° Northeast 245 282 17,500  Level Boston Center
11:40AM 41.7161 -72.8239 48° Northeast 252 290 17,500  Level Boston Center
11:41AM 41.7644 -72.7517 48° Northeast 252 290 17,500  Level Boston Center
11:42AM 41.8103 -72.6797 49° Northeast 257 296 17,500  Level Boston Center
11:43AM 41.8500 -72.6183 49° Northeast 257 296 17,500  Level Boston Center
11:44AM 41.9086 -72.5322 48° Northeast 257 296 17,500  Level Boston Center
11:45AM 41.9522 -72.4597 51° Northeast 257 296 17,500  Level Boston Center
11:46AM 42.0064 -72.3786 48° Northeast 257 296 17,500  Level Boston Center
11:47AM 42.0503 -72.3114 49° Northeast 262 302 17,500  Level Boston Center
11:48AM 42.1042 -72.2275 49° Northeast 262 302 17,500  Level Boston Center
11:49AM 42.1500 -72.1572 49° Northeast 262 302 17,500  Level Boston Center
11:50AM 42.2039 -72.0731 49° Northeast 268 308 17,500  Level Boston Center
11:51AM 42.2475 -72.0053 49° Northeast 268 308 17,500  Level Boston Center
11:52AM 42.3014 -71.9181 50° Northeast 268 308 17,500  Level Boston Center
11:53AM 42.3531 -71.8389 49° Northeast 268 308 17,500  Level Boston Center
11:54AM 42.3964 -71.7711 49° Northeast 268 308 17,500  Level Boston Center
11:55AM 42.4522 -71.6861 48° Northeast 263 303 17,500  Level Boston Center
11:56AM 42.4975 -71.6150 49° Northeast 269 310 17,500  Level Boston Center
11:57AM 42.5531 -71.5269 49° Northeast 269 310 17,500  Level Boston Center
11:58AM 42.5983 -71.4586 48° Northeast 269 310 17,500  Level Boston Center
11:59AM 42.6539 -71.3703 49° Northeast 269 310 17,500  Level Boston Center
12:00PM 42.6989 -71.2989 49° Northeast 269 310 17,500  Level Boston Center
12:01PM 42.7522 -71.2131 50° Northeast 269 310 17,500  Level Boston Center
12:02PM 42.8117 -71.1156 50° Northeast 269 310 17,500  Level Boston Center
12:03PM 42.8567 -71.0467 48° Northeast 269 310 17,500  Level Boston Center
12:04PM 42.9117 -70.9575 50° Northeast 264 304 17,500  Level Boston Center
12:05PM 42.9547 -70.8883 50° Northeast 269 310 17,500  Level Boston Center
12:06PM 43.0075 -70.7989 51° Northeast 269 310 17,500  Level Boston Center
12:07PM 43.0503 -70.7325 49° Northeast 263 303 17,500  Level Boston Center
12:08PM 43.1033 -70.6486 49° Northeast 263 303 17,500  Level Boston Center
12:09PM 43.1439 -70.5792 51° Northeast 263 303 17,500  Level Boston Center
12:10PM 43.1967 -70.4950 49° Northeast 263 303 17,500  Level Boston Center
12:11PM 43.2453 -70.4164 50° Northeast 263 303 17,500  Level Boston Center
12:12PM 43.2917 -70.3378 51° Northeast 263 303 17,500  Level Boston Center
12:13PM 43.3403 -70.2619 49° Northeast 263 303 17,500  Level Boston Center
12:14PM 43.3847 -70.1831 52° Northeast 263 303 17,500  Level Boston Center
12:15PM 43.4333 -70.1069 49° Northeast 263 303 17,500  Level Boston Center
12:16PM 43.4794 -70.0278 51° Northeast 263 303 17,500  Level Boston Center
12:17PM 43.5258 -69.9486 51° Northeast 263 303 17,500  Level Boston Center
12:18PM 43.5681 -69.8783 50° Northeast 263 303 17,500  Level Boston Center
12:19PM 43.6203 -69.7928 50° Northeast 263 303 17,500  Level Boston Center
12:20PM 43.6622 -69.7219 51° Northeast 263 303 17,500  Level Boston Center
12:21PM 43.7122 -69.6336 52° Northeast 263 303 17,500  Level Boston Center
12:22PM 43.7564 -69.5625 49° Northeast 263 303 17,500  Level Boston Center
12:23PM 43.8103 -69.4736 50° Northeast 263 303 17,500  Level Boston Center
12:24PM 43.8503 -69.4025 52° Northeast 263 303 17,500 -540 Level Boston Center
12:25PM 43.9000 -69.3164 51° Northeast 268 308 16,500 -1,020 Descending Boston Center
12:26PM 43.9536 -69.2242 51° Northeast 281 323 15,500 -1,200 Descending Boston Center
12:27PM 44.0075 -69.1375 49° Northeast 287 330 14,100 -1,440 Descending Boston Center
12:28PM 44.0572 -69.0511 51° Northeast 287 330 12,700 -1,500 Descending Boston Center
12:29PM 44.1047 -68.9675 52° Northeast 276 318 11,200 -1,500 Descending Boston Center
12:30PM 44.1503 -68.8894 51° Northeast 271 312 9,700 -1,500 Descending Boston Center
12:31PM 44.1958 -68.8114 51° Northeast 266 306 8,200 -1,500 Descending Boston Center
12:32PM 44.2392 -68.7392 50° Northeast 249 287 6,800 -1,500 Descending Boston Center
12:33PM 44.2806 -68.6642 52° Northeast 243 280 5,300 -1,500 Descending Boston Center
12:34PM 44.3261 -68.5886 50° Northeast 237 273 3,900 6,060 Descending Boston Center
12:35PM 44.3733 -68.5072 51° Northeast 237 273 17,500 6,780 Climbing Boston Center
12:36PM 44.4186 -68.4314 50° Northeast 237 273 17,500  Level Boston Center
12:37PM 44.4619 -68.3558 51° Northeast 237 273 17,500  Level Boston Center
12:38PM 44.5072 -68.2797 50° Northeast 237 273 17,500  Level Boston Center
12:39PM 44.5072 -68.2797 325° Northwest 237 273 17,500  Level Boston Center
12:41PM 44.5072 -68.2797 325° Northwest 237 273 17,500  Level Boston Center
12:43PM 44.4424 -68.3414 214° Southwest  Level FlightAware Approximate
12:50PM 44.4333 -68.3500 222° Southwest  Level FlightAware Approximate
12:51PM 44.4498 -68.3616 222° Southwest  Level Estimated
12:52PM 44.4498 -68.3616 222° Southwest  Level Estimated
12:53PM 44.4498 -68.3616 222° Southwest  Level Estimated
12:54PM 44.4498 -68.3616 222° Southwest  Level Estimated